createdAt,value
2019-05-01T06:20:37.272Z,28.23
2019-05-01T06:23:56.968Z,27.07
2019-05-01T06:26:27.489Z,23.57
2019-05-01T06:29:00.751Z,24.30
2019-05-01T06:31:26.650Z,24.60
2019-05-01T06:33:58.229Z,27.83
2019-05-01T06:36:26.902Z,27.53
2019-05-01T06:38:58.224Z,27.30
2019-05-01T06:41:33.746Z,31.13
2019-05-01T06:44:08.579Z,29.87
2019-05-01T06:46:58.279Z,32.47
2019-05-01T06:49:51.283Z,36.73
2019-05-01T06:52:24.886Z,36.37
2019-05-01T06:54:53.604Z,34.13
2019-05-01T06:57:22.458Z,35.23
2019-05-01T06:59:53.853Z,33.20
2019-05-01T07:02:23.277Z,29.17
2019-05-01T07:04:51.922Z,23.40
2019-05-01T07:07:27.637Z,20.87
2019-05-01T07:09:51.441Z,19.60
2019-05-01T07:12:23.959Z,20.20
2019-05-01T07:14:52.146Z,21.60
2019-05-01T07:17:22.136Z,22.47
2019-05-01T07:20:03.354Z,22.10
2019-05-01T07:22:40.469Z,19.37
2019-05-01T07:25:04.093Z,17.33
2019-05-01T07:27:33.363Z,16.70
2019-05-01T07:30:15.808Z,16.43
2019-05-01T07:32:42.796Z,16.00
2019-05-01T07:35:21.156Z,14.80
2019-05-01T07:37:49.826Z,14.03
2019-05-01T07:40:22.121Z,14.93
2019-05-01T07:43:05.634Z,14.53
2019-05-01T07:45:43.518Z,14.47
2019-05-01T07:48:11.937Z,14.33
2019-05-01T07:50:40.705Z,14.63
2019-05-01T07:53:09.245Z,14.87
2019-05-01T07:55:40.195Z,13.90
2019-05-01T07:58:10.195Z,13.57
2019-05-01T08:00:58.678Z,13.30
2019-05-01T08:03:27.473Z,13.70
2019-05-01T08:05:56.085Z,13.73
2019-05-01T08:08:24.779Z,13.00
2019-05-01T08:10:53.657Z,13.80
2019-05-01T08:13:22.792Z,14.47
2019-05-01T08:18:47.815Z,13.73
2019-05-01T08:21:27.603Z,13.47
2019-05-01T08:23:56.657Z,14.27
2019-05-01T08:26:26.597Z,14.30
2019-05-01T08:29:19.046Z,14.83
2019-05-01T08:32:22.596Z,13.80
2019-05-01T08:35:06.413Z,14.17
2019-05-01T08:37:35.301Z,14.87
2019-05-01T08:40:04.174Z,14.07
2019-05-01T08:42:32.744Z,15.33
2019-05-01T08:45:19.219Z,13.83
2019-05-01T08:47:56.662Z,13.33
2019-05-01T08:50:24.850Z,12.57
2019-05-01T08:52:57.296Z,12.60
2019-05-01T08:55:45.090Z,13.90
2019-05-01T08:58:15.981Z,12.53
2019-05-01T09:00:45.396Z,12.07
2019-05-01T09:03:33.908Z,11.80
2019-05-01T09:06:03.292Z,12.00
2019-05-01T09:08:32.408Z,11.33
2019-05-01T09:11:06.210Z,12.10
2019-05-01T09:13:37.487Z,12.40
2019-05-01T09:16:06.190Z,12.40
2019-05-01T09:18:35.564Z,11.83
2019-05-01T09:21:05.027Z,12.50
2019-05-01T09:23:37.226Z,13.80
2019-05-01T09:26:23.456Z,12.47
2019-05-01T09:28:57.492Z,11.13
2019-05-01T09:31:33.881Z,12.23
2019-05-01T09:34:01.705Z,11.67
2019-05-01T09:36:30.642Z,11.77
2019-05-01T09:38:59.987Z,11.40
2019-05-01T09:41:38.582Z,11.57
2019-05-01T09:44:12.262Z,11.43
2019-05-01T09:47:00.510Z,12.47
2019-05-01T09:49:34.718Z,11.13
2019-05-01T09:52:38.644Z,11.60
2019-05-01T09:55:13.101Z,11.07
2019-05-01T09:57:53.834Z,11.33
2019-05-01T10:00:30.432Z,12.27
2019-05-01T10:03:32.470Z,11.60
2019-05-01T10:06:01.250Z,11.03
2019-05-01T10:08:30.094Z,9.90
2019-05-01T10:10:59.894Z,10.43
2019-05-01T10:13:29.965Z,9.87
2019-05-01T10:15:59.101Z,10.10
2019-05-01T10:18:29.478Z,10.07
2019-05-01T10:20:58.065Z,10.00
2019-05-01T10:26:07.025Z,9.90
2019-05-01T10:29:05.839Z,10.63
2019-05-01T10:32:02.225Z,10.70
2019-05-01T10:35:09.586Z,10.50
2019-05-01T10:37:41.210Z,10.73
2019-05-01T10:40:12.663Z,9.83
2019-05-01T10:42:42.122Z,9.30
2019-05-01T12:06:26.057Z,7.30
2019-05-01T12:08:54.838Z,8.00
2019-05-01T12:11:24.836Z,7.83
2019-05-01T12:13:54.022Z,8.23
2019-05-01T12:16:44.584Z,8.13
2019-05-01T12:19:14.495Z,6.87
2019-05-01T12:21:42.935Z,8.33
2019-05-01T12:24:11.313Z,8.17
2019-05-01T12:26:39.915Z,8.20
2019-05-01T12:29:08.308Z,8.50
2019-05-01T12:31:36.752Z,9.10
2019-05-01T12:34:06.722Z,7.10
2019-05-01T12:36:36.709Z,7.07
2019-05-01T12:39:06.119Z,7.57
2019-05-01T12:41:39.891Z,8.30
2019-05-01T12:44:08.482Z,8.33
2019-05-01T12:46:58.784Z,8.47
2019-05-01T12:49:27.244Z,7.50
2019-05-01T12:52:09.820Z,6.33
2019-05-01T12:54:40.914Z,6.73
2019-05-01T12:57:09.303Z,8.07
2019-05-01T12:59:37.752Z,7.17
2019-05-01T13:02:06.188Z,7.53
2019-05-01T13:04:34.719Z,7.53
2019-05-01T13:07:03.856Z,7.13
2019-05-01T13:09:32.422Z,6.90
2019-05-01T13:12:01.138Z,7.00
2019-05-01T13:14:29.593Z,7.10
2019-05-01T13:16:58.055Z,7.13
2019-05-01T13:19:28.305Z,6.80
2019-05-01T13:21:56.766Z,6.40
2019-05-01T13:24:28.245Z,6.23
2019-05-01T13:27:25.147Z,7.33
2019-05-01T13:29:58.535Z,7.03
2019-05-01T13:32:37.296Z,7.10
2019-05-01T13:35:06.063Z,7.67
2019-05-01T13:37:35.122Z,6.80
2019-05-01T13:40:03.784Z,6.80
2019-05-01T13:42:32.374Z,6.70
2019-05-01T14:03:36.738Z,6.90
2019-05-01T14:27:43.163Z,5.40
2019-05-01T16:00:23.342Z,7.00
2019-05-01T16:02:54.164Z,6.10
2019-05-01T16:05:22.709Z,4.63
2019-05-01T16:07:51.543Z,5.30
2019-05-01T16:10:53.488Z,4.30
2019-05-01T16:13:22.563Z,4.63
2019-05-01T16:15:51.429Z,5.70
2019-05-01T16:18:22.725Z,5.43
2019-05-01T16:20:54.317Z,4.83
2019-05-01T16:23:23.134Z,5.43
2019-05-01T16:25:51.780Z,5.10
2019-05-01T16:31:49.879Z,4.40
2019-05-01T16:35:56.187Z,4.87
2019-05-01T16:36:53.525Z,4.67
2019-05-01T16:39:53.656Z,4.40
2019-05-01T16:42:33.085Z,4.90
2019-05-01T16:48:50.396Z,4.60
2019-05-01T16:55:09.160Z,4.07
2019-05-01T17:04:57.974Z,5.10
2019-05-01T17:27:54.825Z,5.67
2019-05-01T17:30:30.982Z,6.47
2019-05-01T17:33:19.598Z,7.27
2019-05-01T17:35:43.270Z,7.00
2019-05-01T17:38:15.342Z,6.00
2019-05-01T17:40:52.146Z,6.60
2019-05-01T17:43:19.674Z,6.20
2019-05-01T17:45:57.881Z,6.73
2019-05-01T17:48:28.856Z,5.27
2019-05-01T17:51:12.136Z,5.90
2019-05-01T17:54:14.177Z,5.50
2019-05-01T17:56:48.486Z,6.13
2019-05-01T18:09:51.481Z,7.00
2019-05-01T18:12:28.538Z,8.53
2019-05-01T18:14:55.879Z,7.27
2019-05-01T18:17:27.668Z,7.90
2019-05-01T18:19:59.228Z,8.40
2019-05-01T18:22:50.577Z,7.67
2019-05-01T18:25:37.390Z,7.13
2019-05-01T18:28:13.644Z,8.17
2019-05-01T18:30:51.729Z,8.47
2019-05-01T18:33:50.861Z,7.10
2019-05-01T18:37:01.771Z,7.10
2019-05-01T18:39:42.221Z,7.27
2019-05-01T18:42:35.712Z,8.70
2019-05-01T18:45:15.001Z,8.53
2019-05-01T18:48:12.792Z,8.73
2019-05-01T18:53:21.912Z,9.33
2019-05-01T18:55:54.243Z,8.80
2019-05-01T18:58:34.270Z,9.43
2019-05-01T19:01:13.649Z,10.13
2019-05-01T19:03:49.050Z,10.00
2019-05-01T19:06:40.070Z,9.50
2019-05-01T19:16:08.694Z,10.10
2019-05-01T19:19:04.780Z,10.17
2019-05-01T19:21:46.392Z,11.63
2019-05-01T19:24:17.559Z,9.60
2019-05-01T19:27:20.903Z,11.13
2019-05-01T19:29:33.894Z,10.80
2019-05-01T19:32:14.680Z,11.47
2019-05-01T19:34:53.057Z,11.77
2019-05-01T19:37:42.094Z,11.60
2019-05-01T20:40:14.345Z,17.13
2019-05-01T21:13:02.622Z,21.27
2019-05-01T21:19:07.474Z,22.23
2019-05-01T21:24:49.087Z,22.77
2019-05-01T21:27:18.496Z,24.10
2019-05-01T21:30:09.045Z,24.20
2019-05-01T21:39:07.063Z,22.63
2019-05-01T21:41:58.376Z,22.93
2019-05-01T21:44:46.589Z,21.57
2019-05-01T21:47:34.618Z,21.43
2019-05-01T21:50:03.649Z,22.20
2019-05-01T21:52:53.662Z,24.07
2019-05-01T21:55:25.725Z,24.37
2019-05-01T21:58:15.176Z,24.60
2019-05-01T22:01:02.961Z,24.50
2019-05-01T22:03:57.138Z,24.57
2019-05-01T22:06:46.674Z,26.67
2019-05-01T22:12:43.841Z,25.97
2019-05-01T22:43:14.497Z,28.60
2019-05-01T23:06:53.757Z,29.77
2019-05-01T23:10:03.305Z,32.97
2019-05-01T23:12:50.495Z,32.43
2019-05-01T23:15:38.366Z,31.17
2019-05-01T23:24:09.743Z,31.93
2019-05-01T23:26:38.347Z,33.00
2019-05-01T23:29:26.329Z,33.30
2019-05-01T23:31:55.350Z,31.80
2019-05-01T23:34:26.314Z,34.03
2019-05-01T23:37:16.270Z,34.70
2019-05-01T23:39:45.000Z,33.07
2019-05-01T23:42:13.673Z,34.77
2019-05-01T23:44:42.926Z,33.30
2019-05-01T23:47:12.794Z,34.50
2019-05-01T23:49:41.907Z,33.73
2019-05-01T23:52:12.050Z,33.73
2019-05-01T23:55:00.882Z,32.50
2019-05-01T23:57:49.080Z,33.10
